sensor_id;sensor_type;location;lat;lon;timestamp;P1;durP1;ratioP1;P2;durP2;ratioP2
84500;SDS011;74725;44.210;17.906;2024-03-02T00:00:08;18.85;;;9.65;;
84500;SDS011;74725;44.210;17.906;2024-03-02T00:02:40;19.65;;;11.18;;
84500;SDS011;74725;44.210;17.906;2024-03-02T00:05:19;27.08;;;13.43;;
84500;SDS011;74725;44.210;17.906;2024-03-02T00:07:47;22.08;;;12.60;;
84500;SDS011;74725;44.210;17.906;2024-03-02T00:10:19;25.30;;;13.82;;
84500;SDS011;74725;44.210;17.906;2024-03-02T00:12:50;26.75;;;12.85;;
84500;SDS011;74725;44.210;17.906;2024-03-02T00:17:59;24.77;;;12.77;;
84500;SDS011;74725;44.210;17.906;2024-03-02T00:20:25;23.10;;;12.63;;
84500;SDS011;74725;44.210;17.906;2024-03-02T00:23:02;20.85;;;13.10;;
84500;SDS011;74725;44.210;17.906;2024-03-02T00:31:07;27.63;;;13.60;;
84500;SDS011;74725;44.210;17.906;2024-03-02T00:33:43;25.77;;;13.40;;
84500;SDS011;74725;44.210;17.906;2024-03-02T00:36:11;24.88;;;12.77;;
84500;SDS011;74725;44.210;17.906;2024-03-02T00:38:48;25.13;;;13.55;;
84500;SDS011;74725;44.210;17.906;2024-03-02T00:41:21;26.95;;;13.50;;
84500;SDS011;74725;44.210;17.906;2024-03-02T00:44:01;23.85;;;13.20;;
84500;SDS011;74725;44.210;17.906;2024-03-02T00:46:34;25.10;;;12.10;;
84500;SDS011;74725;44.210;17.906;2024-03-02T00:49:05;26.50;;;12.88;;
84500;SDS011;74725;44.210;17.906;2024-03-02T00:51:37;24.30;;;12.25;;
84500;SDS011;74725;44.210;17.906;2024-03-02T00:54:05;24.10;;;12.77;;
84500;SDS011;74725;44.210;17.906;2024-03-02T00:56:33;26.58;;;13.43;;
84500;SDS011;74725;44.210;17.906;2024-03-02T00:59:00;27.13;;;14.13;;
84500;SDS011;74725;44.210;17.906;2024-03-02T01:01:25;22.30;;;12.43;;
84500;SDS011;74725;44.210;17.906;2024-03-02T01:03:51;25.67;;;11.93;;
84500;SDS011;74725;44.210;17.906;2024-03-02T01:06:18;23.48;;;11.95;;
84500;SDS011;74725;44.210;17.906;2024-03-02T01:08:44;22.80;;;12.77;;
84500;SDS011;74725;44.210;17.906;2024-03-02T01:11:10;21.23;;;13.45;;
84500;SDS011;74725;44.210;17.906;2024-03-02T01:13:35;25.20;;;12.57;;
84500;SDS011;74725;44.210;17.906;2024-03-02T01:16:01;24.05;;;12.82;;
84500;SDS011;74725;44.210;17.906;2024-03-02T01:18:27;26.27;;;13.30;;
84500;SDS011;74725;44.210;17.906;2024-03-02T01:20:53;22.58;;;11.93;;
84500;SDS011;74725;44.210;17.906;2024-03-02T01:23:22;22.52;;;12.48;;
84500;SDS011;74725;44.210;17.906;2024-03-02T01:25:48;26.08;;;11.55;;
84500;SDS011;74725;44.210;17.906;2024-03-02T01:28:14;23.23;;;12.48;;
84500;SDS011;74725;44.210;17.906;2024-03-02T01:30:40;23.70;;;11.65;;
84500;SDS011;74725;44.210;17.906;2024-03-02T01:33:06;22.20;;;13.13;;
84500;SDS011;74725;44.210;17.906;2024-03-02T01:35:32;21.80;;;12.43;;
84500;SDS011;74725;44.210;17.906;2024-03-02T01:37:58;25.00;;;11.75;;
84500;SDS011;74725;44.210;17.906;2024-03-02T01:40:23;20.95;;;12.15;;
84500;SDS011;74725;44.210;17.906;2024-03-02T01:42:52;21.25;;;11.38;;
84500;SDS011;74725;44.210;17.906;2024-03-02T01:45:23;28.95;;;12.00;;
84500;SDS011;74725;44.210;17.906;2024-03-02T01:47:49;21.67;;;11.27;;
84500;SDS011;74725;44.210;17.906;2024-03-02T01:50:14;26.00;;;11.98;;
84500;SDS011;74725;44.210;17.906;2024-03-02T01:52:40;21.13;;;11.40;;
84500;SDS011;74725;44.210;17.906;2024-03-02T01:55:06;24.98;;;11.88;;
84500;SDS011;74725;44.210;17.906;2024-03-02T01:57:35;24.60;;;11.90;;
84500;SDS011;74725;44.210;17.906;2024-03-02T02:00:01;18.15;;;9.65;;
84500;SDS011;74725;44.210;17.906;2024-03-02T02:02:37;20.52;;;9.50;;
84500;SDS011;74725;44.210;17.906;2024-03-02T02:05:02;18.63;;;8.90;;
84500;SDS011;74725;44.210;17.906;2024-03-02T02:07:29;18.52;;;9.55;;
84500;SDS011;74725;44.210;17.906;2024-03-02T02:09:54;17.17;;;9.27;;
84500;SDS011;74725;44.210;17.906;2024-03-02T02:12:20;18.33;;;8.50;;
84500;SDS011;74725;44.210;17.906;2024-03-02T02:14:49;21.55;;;9.38;;
84500;SDS011;74725;44.210;17.906;2024-03-02T02:17:18;22.80;;;9.63;;
84500;SDS011;74725;44.210;17.906;2024-03-02T02:19:44;16.13;;;9.38;;
84500;SDS011;74725;44.210;17.906;2024-03-02T02:22:10;20.08;;;9.80;;
84500;SDS011;74725;44.210;17.906;2024-03-02T02:24:39;21.98;;;9.80;;
84500;SDS011;74725;44.210;17.906;2024-03-02T02:27:05;17.92;;;9.07;;
84500;SDS011;74725;44.210;17.906;2024-03-02T02:29:31;17.27;;;8.70;;
84500;SDS011;74725;44.210;17.906;2024-03-02T02:31:56;19.98;;;9.25;;
84500;SDS011;74725;44.210;17.906;2024-03-02T02:34:22;19.50;;;8.93;;
84500;SDS011;74725;44.210;17.906;2024-03-02T02:36:47;15.90;;;8.85;;
84500;SDS011;74725;44.210;17.906;2024-03-02T02:39:13;14.70;;;8.18;;
84500;SDS011;74725;44.210;17.906;2024-03-02T02:41:42;14.43;;;8.25;;
84500;SDS011;74725;44.210;17.906;2024-03-02T02:44:08;15.38;;;8.32;;
84500;SDS011;74725;44.210;17.906;2024-03-02T02:46:33;15.50;;;8.60;;
84500;SDS011;74725;44.210;17.906;2024-03-02T02:48:59;12.82;;;7.70;;
84500;SDS011;74725;44.210;17.906;2024-03-02T02:51:24;17.65;;;8.40;;
84500;SDS011;74725;44.210;17.906;2024-03-02T02:53:51;21.13;;;9.15;;
84500;SDS011;74725;44.210;17.906;2024-03-02T02:56:16;14.35;;;7.95;;
84500;SDS011;74725;44.210;17.906;2024-03-02T02:58:42;15.75;;;8.20;;
84500;SDS011;74725;44.210;17.906;2024-03-02T03:01:07;16.35;;;8.52;;
84500;SDS011;74725;44.210;17.906;2024-03-02T03:03:33;16.38;;;8.07;;
84500;SDS011;74725;44.210;17.906;2024-03-02T03:05:59;17.75;;;7.95;;
84500;SDS011;74725;44.210;17.906;2024-03-02T03:08:24;13.98;;;8.55;;
84500;SDS011;74725;44.210;17.906;2024-03-02T03:10:50;15.90;;;8.52;;
84500;SDS011;74725;44.210;17.906;2024-03-02T03:13:15;16.92;;;8.63;;
84500;SDS011;74725;44.210;17.906;2024-03-02T03:15:41;22.55;;;10.40;;
84500;SDS011;74725;44.210;17.906;2024-03-02T03:18:07;22.13;;;11.20;;
84500;SDS011;74725;44.210;17.906;2024-03-02T03:20:33;27.00;;;13.82;;
84500;SDS011;74725;44.210;17.906;2024-03-02T03:22:59;28.13;;;15.05;;
84500;SDS011;74725;44.210;17.906;2024-03-02T03:25:25;31.58;;;16.80;;
84500;SDS011;74725;44.210;17.906;2024-03-02T03:27:51;26.65;;;14.82;;
84500;SDS011;74725;44.210;17.906;2024-03-02T03:30:19;30.35;;;15.77;;
84500;SDS011;74725;44.210;17.906;2024-03-02T03:32:45;27.73;;;14.18;;
84500;SDS011;74725;44.210;17.906;2024-03-02T03:35:10;22.17;;;13.90;;
84500;SDS011;74725;44.210;17.906;2024-03-02T03:37:38;23.13;;;12.70;;
84500;SDS011;74725;44.210;17.906;2024-03-02T03:40:03;22.70;;;12.70;;
84500;SDS011;74725;44.210;17.906;2024-03-02T03:42:38;22.95;;;11.02;;
84500;SDS011;74725;44.210;17.906;2024-03-02T03:45:04;20.73;;;11.35;;
84500;SDS011;74725;44.210;17.906;2024-03-02T03:47:33;20.15;;;11.27;;
84500;SDS011;74725;44.210;17.906;2024-03-02T03:49:59;20.48;;;10.15;;
84500;SDS011;74725;44.210;17.906;2024-03-02T03:52:24;17.58;;;10.88;;
84500;SDS011;74725;44.210;17.906;2024-03-02T03:54:50;20.85;;;10.50;;
84500;SDS011;74725;44.210;17.906;2024-03-02T03:57:16;20.95;;;9.75;;
84500;SDS011;74725;44.210;17.906;2024-03-02T03:59:42;20.25;;;9.60;;
84500;SDS011;74725;44.210;17.906;2024-03-02T04:02:08;20.45;;;9.88;;
84500;SDS011;74725;44.210;17.906;2024-03-02T04:04:34;18.55;;;9.52;;
84500;SDS011;74725;44.210;17.906;2024-03-02T04:07:00;18.50;;;9.10;;
84500;SDS011;74725;44.210;17.906;2024-03-02T04:09:26;15.45;;;8.73;;
84500;SDS011;74725;44.210;17.906;2024-03-02T04:11:51;18.30;;;8.95;;
84500;SDS011;74725;44.210;17.906;2024-03-02T04:14:17;14.32;;;8.32;;
84500;SDS011;74725;44.210;17.906;2024-03-02T04:16:43;17.60;;;8.07;;
84500;SDS011;74725;44.210;17.906;2024-03-02T04:19:08;16.55;;;9.13;;
84500;SDS011;74725;44.210;17.906;2024-03-02T04:21:34;17.17;;;9.07;;
84500;SDS011;74725;44.210;17.906;2024-03-02T04:23:59;16.05;;;9.05;;
84500;SDS011;74725;44.210;17.906;2024-03-02T04:26:25;15.55;;;8.98;;
84500;SDS011;74725;44.210;17.906;2024-03-02T04:28:52;22.13;;;11.48;;
84500;SDS011;74725;44.210;17.906;2024-03-02T04:31:18;21.17;;;11.27;;
84500;SDS011;74725;44.210;17.906;2024-03-02T04:33:43;17.70;;;10.23;;
84500;SDS011;74725;44.210;17.906;2024-03-02T04:36:09;21.23;;;9.95;;
84500;SDS011;74725;44.210;17.906;2024-03-02T04:38:35;17.98;;;9.15;;
84500;SDS011;74725;44.210;17.906;2024-03-02T04:41:01;14.30;;;8.38;;
84500;SDS011;74725;44.210;17.906;2024-03-02T04:43:26;19.05;;;8.80;;
84500;SDS011;74725;44.210;17.906;2024-03-02T04:45:52;16.30;;;8.27;;
84500;SDS011;74725;44.210;17.906;2024-03-02T04:48:17;16.98;;;9.32;;
84500;SDS011;74725;44.210;17.906;2024-03-02T04:50:44;23.38;;;12.10;;
84500;SDS011;74725;44.210;17.906;2024-03-02T04:53:10;23.98;;;11.10;;
84500;SDS011;74725;44.210;17.906;2024-03-02T04:55:35;21.70;;;10.88;;
84500;SDS011;74725;44.210;17.906;2024-03-02T04:58:07;18.00;;;10.45;;
84500;SDS011;74725;44.210;17.906;2024-03-02T05:00:32;18.88;;;10.18;;
84500;SDS011;74725;44.210;17.906;2024-03-02T05:02:58;21.85;;;10.52;;
84500;SDS011;74725;44.210;17.906;2024-03-02T05:05:24;24.25;;;10.38;;
84500;SDS011;74725;44.210;17.906;2024-03-02T05:07:50;22.55;;;11.63;;
84500;SDS011;74725;44.210;17.906;2024-03-02T05:10:16;31.35;;;13.45;;
84500;SDS011;74725;44.210;17.906;2024-03-02T05:12:41;23.48;;;11.70;;
84500;SDS011;74725;44.210;17.906;2024-03-02T05:15:07;22.63;;;12.73;;
84500;SDS011;74725;44.210;17.906;2024-03-02T05:17:35;30.92;;;12.80;;
84500;SDS011;74725;44.210;17.906;2024-03-02T05:20:01;24.00;;;12.57;;
84500;SDS011;74725;44.210;17.906;2024-03-02T05:22:28;24.17;;;11.88;;
84500;SDS011;74725;44.210;17.906;2024-03-02T05:24:54;22.80;;;11.70;;
84500;SDS011;74725;44.210;17.906;2024-03-02T05:27:20;26.67;;;12.05;;
84500;SDS011;74725;44.210;17.906;2024-03-02T05:29:46;19.55;;;11.23;;
84500;SDS011;74725;44.210;17.906;2024-03-02T05:32:12;23.25;;;11.57;;
84500;SDS011;74725;44.210;17.906;2024-03-02T05:34:37;25.73;;;11.73;;
84500;SDS011;74725;44.210;17.906;2024-03-02T05:37:03;26.73;;;11.48;;
84500;SDS011;74725;44.210;17.906;2024-03-02T05:39:28;31.77;;;14.80;;
84500;SDS011;74725;44.210;17.906;2024-03-02T05:41:54;23.77;;;10.90;;
84500;SDS011;74725;44.210;17.906;2024-03-02T05:44:20;20.10;;;10.95;;
84500;SDS011;74725;44.210;17.906;2024-03-02T05:46:45;23.80;;;11.52;;
84500;SDS011;74725;44.210;17.906;2024-03-02T05:49:11;20.38;;;10.45;;
84500;SDS011;74725;44.210;17.906;2024-03-02T05:51:36;20.88;;;10.55;;
84500;SDS011;74725;44.210;17.906;2024-03-02T05:54:02;20.60;;;11.38;;
84500;SDS011;74725;44.210;17.906;2024-03-02T05:56:28;21.20;;;11.68;;
84500;SDS011;74725;44.210;17.906;2024-03-02T05:58:53;20.75;;;10.63;;
84500;SDS011;74725;44.210;17.906;2024-03-02T06:01:44;18.85;;;10.32;;
84500;SDS011;74725;44.210;17.906;2024-03-02T06:04:10;24.27;;;10.90;;
84500;SDS011;74725;44.210;17.906;2024-03-02T06:06:41;19.85;;;10.93;;
84500;SDS011;74725;44.210;17.906;2024-03-02T06:09:06;20.58;;;10.23;;
84500;SDS011;74725;44.210;17.906;2024-03-02T06:11:37;17.90;;;9.82;;
84500;SDS011;74725;44.210;17.906;2024-03-02T06:14:08;18.90;;;9.88;;
84500;SDS011;74725;44.210;17.906;2024-03-02T06:16:34;19.50;;;9.73;;
84500;SDS011;74725;44.210;17.906;2024-03-02T06:19:00;15.23;;;9.40;;
84500;SDS011;74725;44.210;17.906;2024-03-02T06:21:26;17.80;;;9.90;;
84500;SDS011;74725;44.210;17.906;2024-03-02T06:23:52;22.40;;;10.75;;
84500;SDS011;74725;44.210;17.906;2024-03-02T06:26:18;21.63;;;11.52;;
84500;SDS011;74725;44.210;17.906;2024-03-02T06:28:45;20.30;;;9.70;;
84500;SDS011;74725;44.210;17.906;2024-03-02T06:31:11;19.95;;;10.82;;
84500;SDS011;74725;44.210;17.906;2024-03-02T06:33:36;22.58;;;11.88;;
84500;SDS011;74725;44.210;17.906;2024-03-02T06:36:02;21.42;;;11.73;;
84500;SDS011;74725;44.210;17.906;2024-03-02T06:38:28;21.35;;;11.75;;
84500;SDS011;74725;44.210;17.906;2024-03-02T06:40:54;22.33;;;12.98;;
84500;SDS011;74725;44.210;17.906;2024-03-02T06:43:20;20.75;;;12.43;;
84500;SDS011;74725;44.210;17.906;2024-03-02T06:45:49;22.00;;;12.23;;
84500;SDS011;74725;44.210;17.906;2024-03-02T06:48:15;21.27;;;12.25;;
84500;SDS011;74725;44.210;17.906;2024-03-02T06:50:45;25.75;;;14.98;;
84500;SDS011;74725;44.210;17.906;2024-03-02T06:53:12;27.13;;;14.43;;
84500;SDS011;74725;44.210;17.906;2024-03-02T06:55:38;25.42;;;13.27;;
84500;SDS011;74725;44.210;17.906;2024-03-02T06:58:04;20.77;;;11.98;;
84500;SDS011;74725;44.210;17.906;2024-03-02T07:00:30;25.85;;;13.50;;
84500;SDS011;74725;44.210;17.906;2024-03-02T07:02:55;20.33;;;12.38;;
84500;SDS011;74725;44.210;17.906;2024-03-02T07:05:21;22.42;;;12.57;;
84500;SDS011;74725;44.210;17.906;2024-03-02T07:07:46;25.50;;;12.77;;
84500;SDS011;74725;44.210;17.906;2024-03-02T07:10:12;23.17;;;13.55;;
84500;SDS011;74725;44.210;17.906;2024-03-02T07:12:38;24.25;;;14.25;;
84500;SDS011;74725;44.210;17.906;2024-03-02T07:15:03;25.58;;;14.18;;
84500;SDS011;74725;44.210;17.906;2024-03-02T07:17:32;27.40;;;14.75;;
84500;SDS011;74725;44.210;17.906;2024-03-02T07:19:57;28.65;;;14.77;;
84500;SDS011;74725;44.210;17.906;2024-03-02T07:22:23;28.42;;;15.93;;
84500;SDS011;74725;44.210;17.906;2024-03-02T07:24:49;33.28;;;17.63;;
84500;SDS011;74725;44.210;17.906;2024-03-02T07:27:15;29.85;;;17.27;;
84500;SDS011;74725;44.210;17.906;2024-03-02T07:29:41;30.48;;;17.27;;
84500;SDS011;74725;44.210;17.906;2024-03-02T07:32:08;31.20;;;16.65;;
84500;SDS011;74725;44.210;17.906;2024-03-02T07:34:34;27.20;;;17.52;;
84500;SDS011;74725;44.210;17.906;2024-03-02T07:37:00;31.17;;;18.13;;
84500;SDS011;74725;44.210;17.906;2024-03-02T07:39:26;36.63;;;19.20;;
84500;SDS011;74725;44.210;17.906;2024-03-02T07:41:52;28.52;;;18.70;;
84500;SDS011;74725;44.210;17.906;2024-03-02T07:44:17;34.47;;;18.95;;
84500;SDS011;74725;44.210;17.906;2024-03-02T07:46:47;27.48;;;16.70;;
84500;SDS011;74725;44.210;17.906;2024-03-02T07:49:16;31.00;;;18.23;;
84500;SDS011;74725;44.210;17.906;2024-03-02T07:51:43;28.85;;;16.70;;
84500;SDS011;74725;44.210;17.906;2024-03-02T07:54:09;28.52;;;15.18;;
84500;SDS011;74725;44.210;17.906;2024-03-02T07:56:34;22.77;;;14.68;;
84500;SDS011;74725;44.210;17.906;2024-03-02T07:59:03;26.70;;;14.15;;
84500;SDS011;74725;44.210;17.906;2024-03-02T08:01:29;21.38;;;14.20;;
84500;SDS011;74725;44.210;17.906;2024-03-02T08:03:59;23.88;;;14.30;;
84500;SDS011;74725;44.210;17.906;2024-03-02T08:08:55;24.42;;;13.43;;
84500;SDS011;74725;44.210;17.906;2024-03-02T08:13:50;19.45;;;12.18;;
84500;SDS011;74725;44.210;17.906;2024-03-02T08:16:18;21.25;;;12.23;;
84500;SDS011;74725;44.210;17.906;2024-03-02T08:18:49;18.20;;;11.63;;
84500;SDS011;74725;44.210;17.906;2024-03-02T08:21:15;18.85;;;10.93;;
84500;SDS011;74725;44.210;17.906;2024-03-02T08:23:42;19.77;;;11.20;;
84500;SDS011;74725;44.210;17.906;2024-03-02T08:26:08;18.90;;;11.20;;
84500;SDS011;74725;44.210;17.906;2024-03-02T08:28:34;17.50;;;10.60;;
84500;SDS011;74725;44.210;17.906;2024-03-02T08:31:00;19.25;;;11.55;;
84500;SDS011;74725;44.210;17.906;2024-03-02T08:33:25;16.95;;;10.63;;
84500;SDS011;74725;44.210;17.906;2024-03-02T08:35:51;18.25;;;10.90;;
84500;SDS011;74725;44.210;17.906;2024-03-02T08:38:17;21.40;;;12.35;;
84500;SDS011;74725;44.210;17.906;2024-03-02T08:40:43;17.38;;;9.93;;
84500;SDS011;74725;44.210;17.906;2024-03-02T08:43:09;15.02;;;10.02;;
84500;SDS011;74725;44.210;17.906;2024-03-02T08:45:35;18.25;;;9.23;;
84500;SDS011;74725;44.210;17.906;2024-03-02T08:48:01;17.13;;;10.75;;
84500;SDS011;74725;44.210;17.906;2024-03-02T08:50:26;22.92;;;10.18;;
84500;SDS011;74725;44.210;17.906;2024-03-02T08:52:52;17.63;;;9.80;;
84500;SDS011;74725;44.210;17.906;2024-03-02T08:55:17;17.10;;;9.75;;
84500;SDS011;74725;44.210;17.906;2024-03-02T08:57:43;19.08;;;10.35;;
84500;SDS011;74725;44.210;17.906;2024-03-02T09:00:09;16.58;;;9.82;;
84500;SDS011;74725;44.210;17.906;2024-03-02T09:02:35;19.75;;;9.98;;
84500;SDS011;74725;44.210;17.906;2024-03-02T09:05:01;18.17;;;10.15;;
84500;SDS011;74725;44.210;17.906;2024-03-02T09:07:27;14.68;;;9.07;;
84500;SDS011;74725;44.210;17.906;2024-03-02T09:09:52;17.00;;;9.48;;
84500;SDS011;74725;44.210;17.906;2024-03-02T09:12:18;17.33;;;9.45;;
84500;SDS011;74725;44.210;17.906;2024-03-02T09:14:44;17.65;;;9.32;;
84500;SDS011;74725;44.210;17.906;2024-03-02T09:17:10;14.70;;;8.75;;
84500;SDS011;74725;44.210;17.906;2024-03-02T09:19:37;15.07;;;7.70;;
84500;SDS011;74725;44.210;17.906;2024-03-02T09:22:03;16.60;;;8.15;;
84500;SDS011;74725;44.210;17.906;2024-03-02T09:24:31;14.88;;;7.60;;
84500;SDS011;74725;44.210;17.906;2024-03-02T09:26:56;12.32;;;6.40;;
84500;SDS011;74725;44.210;17.906;2024-03-02T09:29:22;10.27;;;5.25;;
84500;SDS011;74725;44.210;17.906;2024-03-02T09:31:48;12.68;;;6.43;;
84500;SDS011;74725;44.210;17.906;2024-03-02T09:34:14;13.65;;;6.75;;
84500;SDS011;74725;44.210;17.906;2024-03-02T09:36:40;11.95;;;6.03;;
84500;SDS011;74725;44.210;17.906;2024-03-02T09:39:09;12.43;;;6.20;;
84500;SDS011;74725;44.210;17.906;2024-03-02T09:41:36;10.35;;;4.25;;
84500;SDS011;74725;44.210;17.906;2024-03-02T09:44:02;6.53;;;3.67;;
84500;SDS011;74725;44.210;17.906;2024-03-02T09:46:28;8.40;;;3.25;;
84500;SDS011;74725;44.210;17.906;2024-03-02T09:48:54;5.28;;;3.45;;
84500;SDS011;74725;44.210;17.906;2024-03-02T09:51:20;13.82;;;4.80;;
84500;SDS011;74725;44.210;17.906;2024-03-02T09:53:45;10.25;;;4.68;;
84500;SDS011;74725;44.210;17.906;2024-03-02T09:56:12;9.90;;;4.13;;
84500;SDS011;74725;44.210;17.906;2024-03-02T09:58:38;7.22;;;3.88;;
84500;SDS011;74725;44.210;17.906;2024-03-02T10:01:07;5.47;;;3.03;;
84500;SDS011;74725;44.210;17.906;2024-03-02T10:03:36;6.70;;;3.50;;
84500;SDS011;74725;44.210;17.906;2024-03-02T10:08:50;9.15;;;3.40;;
84500;SDS011;74725;44.210;17.906;2024-03-02T10:11:27;7.68;;;3.42;;
84500;SDS011;74725;44.210;17.906;2024-03-02T10:14:10;9.75;;;3.60;;
84500;SDS011;74725;44.210;17.906;2024-03-02T10:16:38;5.72;;;3.47;;
84500;SDS011;74725;44.210;17.906;2024-03-02T10:19:21;12.57;;;6.40;;
84500;SDS011;74725;44.210;17.906;2024-03-02T10:21:52;9.25;;;4.35;;
84500;SDS011;74725;44.210;17.906;2024-03-02T10:24:20;7.18;;;3.72;;
84500;SDS011;74725;44.210;17.906;2024-03-02T10:26:46;6.20;;;3.65;;
84500;SDS011;74725;44.210;17.906;2024-03-02T10:29:13;12.63;;;3.20;;
84500;SDS011;74725;44.210;17.906;2024-03-02T10:31:39;9.02;;;3.38;;
84500;SDS011;74725;44.210;17.906;2024-03-02T10:34:06;6.05;;;3.30;;
84500;SDS011;74725;44.210;17.906;2024-03-02T10:36:33;7.38;;;3.00;;
84500;SDS011;74725;44.210;17.906;2024-03-02T10:39:01;4.13;;;2.78;;
84500;SDS011;74725;44.210;17.906;2024-03-02T10:41:39;4.57;;;3.10;;
84500;SDS011;74725;44.210;17.906;2024-03-02T10:44:06;9.18;;;3.72;;
84500;SDS011;74725;44.210;17.906;2024-03-02T10:46:33;7.43;;;3.97;;
84500;SDS011;74725;44.210;17.906;2024-03-02T10:49:01;5.50;;;3.38;;
84500;SDS011;74725;44.210;17.906;2024-03-02T10:51:28;5.25;;;3.03;;
84500;SDS011;74725;44.210;17.906;2024-03-02T10:53:57;4.20;;;3.25;;
84500;SDS011;74725;44.210;17.906;2024-03-02T10:56:31;5.22;;;2.90;;
84500;SDS011;74725;44.210;17.906;2024-03-02T10:59:03;8.05;;;3.20;;
84500;SDS011;74725;44.210;17.906;2024-03-02T11:01:31;5.15;;;3.17;;
84500;SDS011;74725;44.210;17.906;2024-03-02T11:03:58;5.65;;;3.05;;
84500;SDS011;74725;44.210;17.906;2024-03-02T11:06:26;5.05;;;2.83;;
84500;SDS011;74725;44.210;17.906;2024-03-02T11:08:53;8.13;;;3.65;;
84500;SDS011;74725;44.210;17.906;2024-03-02T11:11:28;5.75;;;3.40;;
84500;SDS011;74725;44.210;17.906;2024-03-02T11:14:01;4.75;;;3.13;;
84500;SDS011;74725;44.210;17.906;2024-03-02T11:16:36;4.93;;;3.28;;
84500;SDS011;74725;44.210;17.906;2024-03-02T11:19:10;4.70;;;2.88;;
84500;SDS011;74725;44.210;17.906;2024-03-02T11:21:38;8.25;;;3.30;;
84500;SDS011;74725;44.210;17.906;2024-03-02T11:24:30;5.65;;;3.17;;
84500;SDS011;74725;44.210;17.906;2024-03-02T11:27:04;4.15;;;3.10;;
84500;SDS011;74725;44.210;17.906;2024-03-02T11:32:05;8.18;;;4.00;;
84500;SDS011;74725;44.210;17.906;2024-03-02T11:37:15;5.13;;;3.13;;
84500;SDS011;74725;44.210;17.906;2024-03-02T11:39:42;6.93;;;3.47;;
84500;SDS011;74725;44.210;17.906;2024-03-02T11:42:09;5.70;;;3.50;;
84500;SDS011;74725;44.210;17.906;2024-03-02T11:44:37;5.93;;;3.40;;
84500;SDS011;74725;44.210;17.906;2024-03-02T11:47:06;6.07;;;3.30;;
84500;SDS011;74725;44.210;17.906;2024-03-02T11:52:05;8.65;;;4.00;;
84500;SDS011;74725;44.210;17.906;2024-03-02T11:54:33;7.68;;;4.18;;
84500;SDS011;74725;44.210;17.906;2024-03-02T11:57:08;10.70;;;4.50;;
84500;SDS011;74725;44.210;17.906;2024-03-02T11:59:34;7.88;;;3.70;;
84500;SDS011;74725;44.210;17.906;2024-03-02T12:02:00;6.38;;;3.40;;
84500;SDS011;74725;44.210;17.906;2024-03-02T12:04:28;4.28;;;2.92;;
84500;SDS011;74725;44.210;17.906;2024-03-02T12:07:00;4.38;;;2.63;;
84500;SDS011;74725;44.210;17.906;2024-03-02T12:09:27;4.68;;;2.90;;
84500;SDS011;74725;44.210;17.906;2024-03-02T12:14:29;6.68;;;3.40;;
84500;SDS011;74725;44.210;17.906;2024-03-02T12:16:55;5.82;;;3.30;;
84500;SDS011;74725;44.210;17.906;2024-03-02T12:19:21;7.32;;;3.50;;
84500;SDS011;74725;44.210;17.906;2024-03-02T12:21:47;5.20;;;3.60;;
84500;SDS011;74725;44.210;17.906;2024-03-02T12:24:12;7.20;;;3.33;;
84500;SDS011;74725;44.210;17.906;2024-03-02T12:26:38;7.50;;;3.70;;
84500;SDS011;74725;44.210;17.906;2024-03-02T12:29:04;6.57;;;3.25;;
84500;SDS011;74725;44.210;17.906;2024-03-02T12:31:30;6.03;;;3.10;;
84500;SDS011;74725;44.210;17.906;2024-03-02T12:33:56;5.65;;;2.88;;
84500;SDS011;74725;44.210;17.906;2024-03-02T12:36:21;6.40;;;2.95;;
84500;SDS011;74725;44.210;17.906;2024-03-02T12:38:47;7.50;;;3.13;;
84500;SDS011;74725;44.210;17.906;2024-03-02T12:41:16;5.82;;;3.33;;
84500;SDS011;74725;44.210;17.906;2024-03-02T12:43:42;6.82;;;3.67;;
84500;SDS011;74725;44.210;17.906;2024-03-02T12:46:07;8.88;;;4.88;;
84500;SDS011;74725;44.210;17.906;2024-03-02T12:48:34;12.35;;;4.15;;
84500;SDS011;74725;44.210;17.906;2024-03-02T12:51:01;12.55;;;5.25;;
84500;SDS011;74725;44.210;17.906;2024-03-02T12:53:27;9.15;;;3.90;;
84500;SDS011;74725;44.210;17.906;2024-03-02T12:55:52;6.47;;;3.28;;
84500;SDS011;74725;44.210;17.906;2024-03-02T12:58:19;5.53;;;3.08;;
84500;SDS011;74725;44.210;17.906;2024-03-02T13:00:48;9.50;;;3.83;;
84500;SDS011;74725;44.210;17.906;2024-03-02T13:03:14;7.03;;;3.78;;
84500;SDS011;74725;44.210;17.906;2024-03-02T13:05:40;8.13;;;3.90;;
84500;SDS011;74725;44.210;17.906;2024-03-02T13:08:06;11.63;;;3.53;;
84500;SDS011;74725;44.210;17.906;2024-03-02T13:10:32;9.90;;;2.65;;
84500;SDS011;74725;44.210;17.906;2024-03-02T13:12:58;8.75;;;2.80;;
84500;SDS011;74725;44.210;17.906;2024-03-02T13:15:26;7.65;;;2.20;;
84500;SDS011;74725;44.210;17.906;2024-03-02T13:17:52;6.32;;;2.67;;
84500;SDS011;74725;44.210;17.906;2024-03-02T13:20:18;7.75;;;3.65;;
84500;SDS011;74725;44.210;17.906;2024-03-02T13:22:45;9.18;;;4.07;;
84500;SDS011;74725;44.210;17.906;2024-03-02T13:25:10;5.80;;;2.80;;
84500;SDS011;74725;44.210;17.906;2024-03-02T13:27:36;7.03;;;3.67;;
84500;SDS011;74725;44.210;17.906;2024-03-02T13:30:02;6.68;;;2.90;;
84500;SDS011;74725;44.210;17.906;2024-03-02T13:32:31;4.05;;;2.53;;
84500;SDS011;74725;44.210;17.906;2024-03-02T13:34:57;34.03;;;6.50;;
84500;SDS011;74725;44.210;17.906;2024-03-02T13:37:22;6.00;;;3.00;;
84500;SDS011;74725;44.210;17.906;2024-03-02T13:39:48;6.15;;;3.20;;
84500;SDS011;74725;44.210;17.906;2024-03-02T13:42:14;5.70;;;2.83;;
84500;SDS011;74725;44.210;17.906;2024-03-02T13:44:44;5.28;;;3.85;;
84500;SDS011;74725;44.210;17.906;2024-03-02T13:47:14;10.60;;;5.35;;
84500;SDS011;74725;44.210;17.906;2024-03-02T13:49:40;13.38;;;3.95;;
84500;SDS011;74725;44.210;17.906;2024-03-02T13:52:09;7.50;;;4.00;;
84500;SDS011;74725;44.210;17.906;2024-03-02T13:54:42;10.00;;;4.72;;
84500;SDS011;74725;44.210;17.906;2024-03-02T13:57:09;9.00;;;3.75;;
84500;SDS011;74725;44.210;17.906;2024-03-02T13:59:36;11.75;;;6.40;;
84500;SDS011;74725;44.210;17.906;2024-03-02T14:02:03;7.75;;;3.95;;
84500;SDS011;74725;44.210;17.906;2024-03-02T14:04:33;8.88;;;5.22;;
84500;SDS011;74725;44.210;17.906;2024-03-02T14:06:59;10.13;;;5.50;;
84500;SDS011;74725;44.210;17.906;2024-03-02T14:09:25;12.32;;;5.68;;
84500;SDS011;74725;44.210;17.906;2024-03-02T14:11:52;7.97;;;4.68;;
84500;SDS011;74725;44.210;17.906;2024-03-02T14:14:18;10.80;;;4.45;;
84500;SDS011;74725;44.210;17.906;2024-03-02T14:16:44;10.80;;;4.80;;
84500;SDS011;74725;44.210;17.906;2024-03-02T14:19:12;7.82;;;4.47;;
84500;SDS011;74725;44.210;17.906;2024-03-02T14:21:38;9.20;;;4.60;;
84500;SDS011;74725;44.210;17.906;2024-03-02T14:24:05;10.30;;;5.10;;
84500;SDS011;74725;44.210;17.906;2024-03-02T14:26:32;8.52;;;4.28;;
84500;SDS011;74725;44.210;17.906;2024-03-02T14:28:58;8.65;;;4.70;;
84500;SDS011;74725;44.210;17.906;2024-03-02T14:31:27;8.70;;;5.15;;
84500;SDS011;74725;44.210;17.906;2024-03-02T14:33:53;9.52;;;5.10;;
84500;SDS011;74725;44.210;17.906;2024-03-02T14:36:19;8.55;;;4.60;;
84500;SDS011;74725;44.210;17.906;2024-03-02T14:38:45;9.90;;;4.45;;
84500;SDS011;74725;44.210;17.906;2024-03-02T14:41:11;8.32;;;4.47;;
84500;SDS011;74725;44.210;17.906;2024-03-02T14:43:38;10.15;;;4.72;;